sensor_id;sensor_type;location;lat;lon;timestamp;P1;durP1;ratioP1;P2;durP2;ratioP2
79365;SDS011;68833;53.160;17.920;2024-01-15T00:00:19;4.60;;;2.80;;
79365;SDS011;68833;53.160;17.920;2024-01-15T00:03:08;9.10;;;6.50;;
79365;SDS011;68833;53.160;17.920;2024-01-15T00:05:38;9.20;;;6.50;;
79365;SDS011;68833;53.160;17.920;2024-01-15T00:08:07;8.70;;;6.30;;
79365;SDS011;68833;53.160;17.920;2024-01-15T00:10:37;8.30;;;6.20;;
79365;SDS011;68833;53.160;17.920;2024-01-15T00:13:06;5.20;;;4.20;;
79365;SDS011;68833;53.160;17.920;2024-01-15T00:15:35;8.20;;;5.90;;
79365;SDS011;68833;53.160;17.920;2024-01-15T00:18:03;6.20;;;4.40;;
79365;SDS011;68833;53.160;17.920;2024-01-15T00:20:32;8.80;;;5.70;;
79365;SDS011;68833;53.160;17.920;2024-01-15T00:23:00;11.70;;;8.40;;
79365;SDS011;68833;53.160;17.920;2024-01-15T00:25:40;9.80;;;7.30;;
79365;SDS011;68833;53.160;17.920;2024-01-15T00:28:09;9.60;;;7.00;;
79365;SDS011;68833;53.160;17.920;2024-01-15T00:30:38;10.80;;;6.70;;
79365;SDS011;68833;53.160;17.920;2024-01-15T00:33:07;8.10;;;5.50;;
79365;SDS011;68833;53.160;17.920;2024-01-15T00:35:35;5.80;;;4.60;;
79365;SDS011;68833;53.160;17.920;2024-01-15T00:38:02;9.60;;;6.70;;
79365;SDS011;68833;53.160;17.920;2024-01-15T00:40:30;11.70;;;7.60;;
79365;SDS011;68833;53.160;17.920;2024-01-15T00:42:58;9.80;;;8.60;;
79365;SDS011;68833;53.160;17.920;2024-01-15T00:45:27;8.60;;;6.50;;
79365;SDS011;68833;53.160;17.920;2024-01-15T00:47:56;7.10;;;5.10;;
79365;SDS011;68833;53.160;17.920;2024-01-15T00:50:24;7.80;;;5.30;;
79365;SDS011;68833;53.160;17.920;2024-01-15T00:52:53;4.60;;;3.80;;
79365;SDS011;68833;53.160;17.920;2024-01-15T00:55:21;6.40;;;4.50;;
79365;SDS011;68833;53.160;17.920;2024-01-15T00:57:48;10.50;;;7.60;;
79365;SDS011;68833;53.160;17.920;2024-01-15T01:00:15;11.10;;;8.50;;
79365;SDS011;68833;53.160;17.920;2024-01-15T01:02:42;10.00;;;7.40;;
79365;SDS011;68833;53.160;17.920;2024-01-15T01:05:13;7.80;;;6.60;;
79365;SDS011;68833;53.160;17.920;2024-01-15T01:07:40;7.20;;;6.10;;
79365;SDS011;68833;53.160;17.920;2024-01-15T01:10:07;6.60;;;4.60;;
79365;SDS011;68833;53.160;17.920;2024-01-15T01:12:35;4.90;;;4.00;;
79365;SDS011;68833;53.160;17.920;2024-01-15T01:15:04;5.90;;;5.20;;
79365;SDS011;68833;53.160;17.920;2024-01-15T01:17:32;8.30;;;5.90;;
79365;SDS011;68833;53.160;17.920;2024-01-15T01:20:09;11.20;;;7.40;;
79365;SDS011;68833;53.160;17.920;2024-01-15T01:22:39;9.20;;;6.70;;
79365;SDS011;68833;53.160;17.920;2024-01-15T01:25:07;6.70;;;4.90;;
79365;SDS011;68833;53.160;17.920;2024-01-15T01:27:36;5.00;;;4.40;;
79365;SDS011;68833;53.160;17.920;2024-01-15T01:30:07;4.30;;;3.10;;
79365;SDS011;68833;53.160;17.920;2024-01-15T01:32:35;6.30;;;5.00;;
79365;SDS011;68833;53.160;17.920;2024-01-15T01:35:02;8.60;;;5.80;;
79365;SDS011;68833;53.160;17.920;2024-01-15T01:37:29;10.30;;;7.00;;
79365;SDS011;68833;53.160;17.920;2024-01-15T01:40:06;9.70;;;6.60;;
79365;SDS011;68833;53.160;17.920;2024-01-15T01:42:34;6.30;;;5.70;;
79365;SDS011;68833;53.160;17.920;2024-01-15T01:45:01;5.80;;;4.20;;
79365;SDS011;68833;53.160;17.920;2024-01-15T01:47:31;5.20;;;3.70;;
79365;SDS011;68833;53.160;17.920;2024-01-15T01:49:58;5.40;;;3.90;;
79365;SDS011;68833;53.160;17.920;2024-01-15T01:52:26;8.80;;;6.20;;
79365;SDS011;68833;53.160;17.920;2024-01-15T01:54:58;11.40;;;7.30;;
79365;SDS011;68833;53.160;17.920;2024-01-15T01:57:26;8.30;;;6.00;;
79365;SDS011;68833;53.160;17.920;2024-01-15T01:59:55;6.70;;;5.00;;
79365;SDS011;68833;53.160;17.920;2024-01-15T02:11:11;7.90;;;5.60;;
79365;SDS011;68833;53.160;17.920;2024-01-15T02:13:42;8.40;;;5.60;;
79365;SDS011;68833;53.160;17.920;2024-01-15T02:16:10;8.50;;;6.50;;
79365;SDS011;68833;53.160;17.920;2024-01-15T02:18:45;6.70;;;4.70;;
79365;SDS011;68833;53.160;17.920;2024-01-15T02:21:15;3.40;;;2.70;;
79365;SDS011;68833;53.160;17.920;2024-01-15T02:23:42;5.00;;;3.60;;
79365;SDS011;68833;53.160;17.920;2024-01-15T02:26:09;8.30;;;6.00;;
79365;SDS011;68833;53.160;17.920;2024-01-15T02:28:37;6.10;;;4.10;;
79365;SDS011;68833;53.160;17.920;2024-01-15T02:31:05;8.20;;;6.60;;
79365;SDS011;68833;53.160;17.920;2024-01-15T02:33:32;8.50;;;6.50;;
79365;SDS011;68833;53.160;17.920;2024-01-15T02:35:59;6.70;;;4.90;;
79365;SDS011;68833;53.160;17.920;2024-01-15T02:38:26;6.20;;;4.50;;
79365;SDS011;68833;53.160;17.920;2024-01-15T02:40:54;6.60;;;4.90;;
79365;SDS011;68833;53.160;17.920;2024-01-15T02:43:26;4.80;;;3.60;;
79365;SDS011;68833;53.160;17.920;2024-01-15T02:45:53;9.30;;;5.80;;
79365;SDS011;68833;53.160;17.920;2024-01-15T02:48:21;8.80;;;7.30;;
79365;SDS011;68833;53.160;17.920;2024-01-15T02:50:48;6.80;;;5.50;;
79365;SDS011;68833;53.160;17.920;2024-01-15T02:53:18;6.50;;;5.00;;
79365;SDS011;68833;53.160;17.920;2024-01-15T02:55:48;4.60;;;3.70;;
79365;SDS011;68833;53.160;17.920;2024-01-15T02:58:23;5.10;;;4.00;;
79365;SDS011;68833;53.160;17.920;2024-01-15T03:00:52;8.30;;;5.10;;
79365;SDS011;68833;53.160;17.920;2024-01-15T03:03:22;9.30;;;7.00;;
79365;SDS011;68833;53.160;17.920;2024-01-15T03:05:53;7.30;;;5.70;;
79365;SDS011;68833;53.160;17.920;2024-01-15T03:08:22;7.30;;;5.20;;
79365;SDS011;68833;53.160;17.920;2024-01-15T03:10:51;6.60;;;4.90;;
79365;SDS011;68833;53.160;17.920;2024-01-15T03:13:27;4.40;;;3.00;;
79365;SDS011;68833;53.160;17.920;2024-01-15T03:16:05;6.60;;;4.50;;
79365;SDS011;68833;53.160;17.920;2024-01-15T03:18:33;7.80;;;5.00;;
79365;SDS011;68833;53.160;17.920;2024-01-15T03:21:00;9.20;;;7.30;;
79365;SDS011;68833;53.160;17.920;2024-01-15T03:23:30;9.80;;;6.90;;
79365;SDS011;68833;53.160;17.920;2024-01-15T03:25:57;13.20;;;8.30;;
79365;SDS011;68833;53.160;17.920;2024-01-15T03:28:25;7.30;;;4.90;;
79365;SDS011;68833;53.160;17.920;2024-01-15T03:30:53;6.00;;;5.00;;
79365;SDS011;68833;53.160;17.920;2024-01-15T03:33:22;7.20;;;4.70;;
79365;SDS011;68833;53.160;17.920;2024-01-15T03:35:55;5.60;;;3.70;;
79365;SDS011;68833;53.160;17.920;2024-01-15T03:38:23;4.50;;;3.50;;
79365;SDS011;68833;53.160;17.920;2024-01-15T03:40:53;10.50;;;7.10;;
79365;SDS011;68833;53.160;17.920;2024-01-15T03:43:24;12.60;;;8.20;;
79365;SDS011;68833;53.160;17.920;2024-01-15T03:45:51;12.20;;;8.30;;
79365;SDS011;68833;53.160;17.920;2024-01-15T03:48:18;9.10;;;6.00;;
79365;SDS011;68833;53.160;17.920;2024-01-15T03:50:45;8.20;;;5.10;;
79365;SDS011;68833;53.160;17.920;2024-01-15T03:53:13;6.70;;;4.50;;
79365;SDS011;68833;53.160;17.920;2024-01-15T03:55:40;6.90;;;4.80;;
79365;SDS011;68833;53.160;17.920;2024-01-15T03:58:08;11.20;;;7.40;;
79365;SDS011;68833;53.160;17.920;2024-01-15T04:00:35;11.60;;;8.30;;
79365;SDS011;68833;53.160;17.920;2024-01-15T04:03:02;14.40;;;8.40;;
79365;SDS011;68833;53.160;17.920;2024-01-15T04:05:33;8.40;;;5.70;;
79365;SDS011;68833;53.160;17.920;2024-01-15T04:08:00;6.80;;;4.90;;
79365;SDS011;68833;53.160;17.920;2024-01-15T04:10:28;4.90;;;4.20;;
79365;SDS011;68833;53.160;17.920;2024-01-15T04:12:58;6.40;;;3.80;;
79365;SDS011;68833;53.160;17.920;2024-01-15T04:15:26;4.30;;;3.10;;
79365;SDS011;68833;53.160;17.920;2024-01-15T04:17:53;7.50;;;6.30;;
79365;SDS011;68833;53.160;17.920;2024-01-15T04:20:20;8.70;;;5.80;;
79365;SDS011;68833;53.160;17.920;2024-01-15T04:22:49;4.50;;;3.30;;
79365;SDS011;68833;53.160;17.920;2024-01-15T04:25:16;5.80;;;4.10;;
79365;SDS011;68833;53.160;17.920;2024-01-15T04:27:43;5.30;;;3.40;;
79365;SDS011;68833;53.160;17.920;2024-01-15T04:30:11;7.80;;;4.90;;
79365;SDS011;68833;53.160;17.920;2024-01-15T04:32:38;5.60;;;4.00;;
79365;SDS011;68833;53.160;17.920;2024-01-15T04:35:05;5.20;;;3.50;;
79365;SDS011;68833;53.160;17.920;2024-01-15T04:37:33;3.60;;;2.40;;
79365;SDS011;68833;53.160;17.920;2024-01-15T04:40:00;4.30;;;2.50;;
79365;SDS011;68833;53.160;17.920;2024-01-15T04:42:27;4.40;;;2.60;;
79365;SDS011;68833;53.160;17.920;2024-01-15T04:44:54;4.20;;;2.90;;
79365;SDS011;68833;53.160;17.920;2024-01-15T04:47:21;6.50;;;3.10;;
79365;SDS011;68833;53.160;17.920;2024-01-15T04:49:50;5.50;;;3.30;;
79365;SDS011;68833;53.160;17.920;2024-01-15T04:52:17;3.10;;;2.20;;
79365;SDS011;68833;53.160;17.920;2024-01-15T04:54:45;4.40;;;2.30;;
79365;SDS011;68833;53.160;17.920;2024-01-15T04:57:12;2.50;;;2.30;;
79365;SDS011;68833;53.160;17.920;2024-01-15T04:59:39;3.00;;;2.00;;
79365;SDS011;68833;53.160;17.920;2024-01-15T05:02:07;5.00;;;2.70;;
79365;SDS011;68833;53.160;17.920;2024-01-15T05:04:34;5.70;;;3.50;;
79365;SDS011;68833;53.160;17.920;2024-01-15T05:07:01;4.30;;;1.70;;
79365;SDS011;68833;53.160;17.920;2024-01-15T05:09:28;3.70;;;2.20;;
79365;SDS011;68833;53.160;17.920;2024-01-15T05:11:55;3.50;;;2.20;;
79365;SDS011;68833;53.160;17.920;2024-01-15T05:14:22;3.00;;;2.10;;
79365;SDS011;68833;53.160;17.920;2024-01-15T05:16:49;4.60;;;2.40;;
79365;SDS011;68833;53.160;17.920;2024-01-15T05:19:17;6.00;;;3.00;;
79365;SDS011;68833;53.160;17.920;2024-01-15T05:21:46;6.00;;;2.50;;
79365;SDS011;68833;53.160;17.920;2024-01-15T05:24:13;4.90;;;2.60;;
79365;SDS011;68833;53.160;17.920;2024-01-15T05:26:40;7.10;;;3.60;;
79365;SDS011;68833;53.160;17.920;2024-01-15T05:29:07;3.40;;;1.80;;
79365;SDS011;68833;53.160;17.920;2024-01-15T05:31:35;2.40;;;1.70;;
79365;SDS011;68833;53.160;17.920;2024-01-15T05:34:02;3.50;;;2.00;;
79365;SDS011;68833;53.160;17.920;2024-01-15T05:36:29;5.50;;;3.10;;
79365;SDS011;68833;53.160;17.920;2024-01-15T05:38:56;10.80;;;4.80;;
79365;SDS011;68833;53.160;17.920;2024-01-15T05:41:23;11.70;;;4.80;;
79365;SDS011;68833;53.160;17.920;2024-01-15T05:46:22;5.30;;;2.60;;
79365;SDS011;68833;53.160;17.920;2024-01-15T05:48:49;4.60;;;2.60;;
79365;SDS011;68833;53.160;17.920;2024-01-15T05:51:16;5.90;;;1.90;;
79365;SDS011;68833;53.160;17.920;2024-01-15T05:53:44;5.10;;;2.40;;
79365;SDS011;68833;53.160;17.920;2024-01-15T05:56:11;4.60;;;2.50;;
79365;SDS011;68833;53.160;17.920;2024-01-15T05:58:40;8.70;;;3.30;;
79365;SDS011;68833;53.160;17.920;2024-01-15T06:01:07;5.90;;;2.90;;
79365;SDS011;68833;53.160;17.920;2024-01-15T06:03:34;6.70;;;3.20;;
79365;SDS011;68833;53.160;17.920;2024-01-15T06:06:01;3.70;;;2.00;;
79365;SDS011;68833;53.160;17.920;2024-01-15T06:08:29;4.10;;;1.50;;
79365;SDS011;68833;53.160;17.920;2024-01-15T06:10:56;3.40;;;1.60;;
79365;SDS011;68833;53.160;17.920;2024-01-15T06:13:26;3.90;;;1.60;;
79365;SDS011;68833;53.160;17.920;2024-01-15T06:15:54;4.90;;;2.10;;
79365;SDS011;68833;53.160;17.920;2024-01-15T06:18:21;6.20;;;2.70;;
79365;SDS011;68833;53.160;17.920;2024-01-15T06:20:48;4.30;;;2.50;;
79365;SDS011;68833;53.160;17.920;2024-01-15T06:23:15;3.40;;;1.80;;
79365;SDS011;68833;53.160;17.920;2024-01-15T06:25:42;4.80;;;2.20;;
79365;SDS011;68833;53.160;17.920;2024-01-15T06:28:10;3.50;;;2.20;;
79365;SDS011;68833;53.160;17.920;2024-01-15T06:30:37;4.90;;;3.40;;
79365;SDS011;68833;53.160;17.920;2024-01-15T06:33:04;3.80;;;2.70;;
79365;SDS011;68833;53.160;17.920;2024-01-15T06:35:31;4.80;;;2.70;;
79365;SDS011;68833;53.160;17.920;2024-01-15T06:37:58;6.10;;;3.50;;
79365;SDS011;68833;53.160;17.920;2024-01-15T06:40:25;6.10;;;3.20;;
79365;SDS011;68833;53.160;17.920;2024-01-15T06:42:53;7.50;;;4.00;;
79365;SDS011;68833;53.160;17.920;2024-01-15T06:45:19;6.10;;;3.50;;
79365;SDS011;68833;53.160;17.920;2024-01-15T06:47:46;7.10;;;3.30;;
79365;SDS011;68833;53.160;17.920;2024-01-15T06:50:14;8.40;;;4.10;;
79365;SDS011;68833;53.160;17.920;2024-01-15T06:52:41;10.30;;;5.30;;
79365;SDS011;68833;53.160;17.920;2024-01-15T06:55:08;15.00;;;7.30;;
79365;SDS011;68833;53.160;17.920;2024-01-15T06:57:35;11.40;;;5.30;;
79365;SDS011;68833;53.160;17.920;2024-01-15T07:00:02;12.70;;;6.80;;
79365;SDS011;68833;53.160;17.920;2024-01-15T07:02:34;14.30;;;6.20;;
79365;SDS011;68833;53.160;17.920;2024-01-15T07:05:01;10.40;;;6.00;;
79365;SDS011;68833;53.160;17.920;2024-01-15T07:07:28;8.90;;;4.20;;
79365;SDS011;68833;53.160;17.920;2024-01-15T07:09:58;5.50;;;2.40;;
79365;SDS011;68833;53.160;17.920;2024-01-15T07:12:25;9.80;;;4.40;;
79365;SDS011;68833;53.160;17.920;2024-01-15T07:14:52;8.70;;;5.10;;
79365;SDS011;68833;53.160;17.920;2024-01-15T07:17:19;7.80;;;3.90;;
79365;SDS011;68833;53.160;17.920;2024-01-15T07:19:47;9.00;;;4.00;;
79365;SDS011;68833;53.160;17.920;2024-01-15T07:22:14;5.50;;;3.00;;
79365;SDS011;68833;53.160;17.920;2024-01-15T07:24:43;5.70;;;2.60;;
79365;SDS011;68833;53.160;17.920;2024-01-15T07:27:10;5.60;;;2.70;;
79365;SDS011;68833;53.160;17.920;2024-01-15T07:29:37;6.30;;;4.30;;
79365;SDS011;68833;53.160;17.920;2024-01-15T07:32:04;8.20;;;4.50;;
79365;SDS011;68833;53.160;17.920;2024-01-15T07:34:32;10.50;;;5.10;;
79365;SDS011;68833;53.160;17.920;2024-01-15T07:36:59;7.10;;;4.20;;
79365;SDS011;68833;53.160;17.920;2024-01-15T07:39:26;4.60;;;3.70;;
79365;SDS011;68833;53.160;17.920;2024-01-15T07:41:58;5.50;;;3.30;;
79365;SDS011;68833;53.160;17.920;2024-01-15T07:46:55;4.80;;;2.50;;
79365;SDS011;68833;53.160;17.920;2024-01-15T07:49:25;9.70;;;4.80;;
79365;SDS011;68833;53.160;17.920;2024-01-15T07:51:57;4.40;;;2.50;;
79365;SDS011;68833;53.160;17.920;2024-01-15T07:54:24;9.60;;;5.10;;
79365;SDS011;68833;53.160;17.920;2024-01-15T07:56:58;5.20;;;3.10;;
79365;SDS011;68833;53.160;17.920;2024-01-15T07:59:27;5.80;;;3.90;;
79365;SDS011;68833;53.160;17.920;2024-01-15T08:01:58;5.40;;;2.90;;
79365;SDS011;68833;53.160;17.920;2024-01-15T08:04:28;6.60;;;3.60;;
79365;SDS011;68833;53.160;17.920;2024-01-15T08:06:58;11.10;;;5.20;;
79365;SDS011;68833;53.160;17.920;2024-01-15T08:09:25;7.90;;;3.80;;
79365;SDS011;68833;53.160;17.920;2024-01-15T08:11:55;7.90;;;4.50;;
79365;SDS011;68833;53.160;17.920;2024-01-15T08:14:22;5.00;;;3.50;;
79365;SDS011;68833;53.160;17.920;2024-01-15T08:16:49;4.30;;;2.50;;
79365;SDS011;68833;53.160;17.920;2024-01-15T08:19:17;5.70;;;2.30;;
79365;SDS011;68833;53.160;17.920;2024-01-15T08:21:46;7.10;;;3.60;;
79365;SDS011;68833;53.160;17.920;2024-01-15T08:24:14;7.60;;;3.80;;
79365;SDS011;68833;53.160;17.920;2024-01-15T08:26:41;6.00;;;3.80;;
79365;SDS011;68833;53.160;17.920;2024-01-15T08:29:11;9.70;;;3.60;;
79365;SDS011;68833;53.160;17.920;2024-01-15T08:34:08;4.40;;;2.10;;
79365;SDS011;68833;53.160;17.920;2024-01-15T08:36:35;5.40;;;2.80;;
79365;SDS011;68833;53.160;17.920;2024-01-15T08:39:02;6.60;;;4.00;;
79365;SDS011;68833;53.160;17.920;2024-01-15T08:41:31;6.70;;;3.90;;
79365;SDS011;68833;53.160;17.920;2024-01-15T08:44:05;7.80;;;3.90;;
79365;SDS011;68833;53.160;17.920;2024-01-15T08:46:34;5.70;;;2.60;;
79365;SDS011;68833;53.160;17.920;2024-01-15T08:49:02;5.30;;;2.50;;
79365;SDS011;68833;53.160;17.920;2024-01-15T08:51:30;6.10;;;3.00;;
79365;SDS011;68833;53.160;17.920;2024-01-15T08:53:57;4.60;;;2.50;;
79365;SDS011;68833;53.160;17.920;2024-01-15T08:56:24;6.80;;;3.20;;
79365;SDS011;68833;53.160;17.920;2024-01-15T08:58:54;6.30;;;2.70;;
79365;SDS011;68833;53.160;17.920;2024-01-15T09:01:29;8.80;;;3.70;;
79365;SDS011;68833;53.160;17.920;2024-01-15T09:03:59;6.70;;;3.70;;
79365;SDS011;68833;53.160;17.920;2024-01-15T09:06:26;5.50;;;3.10;;
79365;SDS011;68833;53.160;17.920;2024-01-15T09:08:53;3.70;;;2.30;;
79365;SDS011;68833;53.160;17.920;2024-01-15T09:11:21;5.80;;;2.60;;
79365;SDS011;68833;53.160;17.920;2024-01-15T09:13:48;8.50;;;4.00;;
79365;SDS011;68833;53.160;17.920;2024-01-15T09:16:22;5.40;;;3.20;;
79365;SDS011;68833;53.160;17.920;2024-01-15T09:18:49;7.20;;;4.20;;
79365;SDS011;68833;53.160;17.920;2024-01-15T09:21:19;6.50;;;3.40;;
79365;SDS011;68833;53.160;17.920;2024-01-15T09:23:46;5.10;;;2.90;;
79365;SDS011;68833;53.160;17.920;2024-01-15T09:26:16;6.90;;;3.40;;
79365;SDS011;68833;53.160;17.920;2024-01-15T09:28:44;9.60;;;4.70;;
79365;SDS011;68833;53.160;17.920;2024-01-15T09:31:11;9.60;;;5.00;;
79365;SDS011;68833;53.160;17.920;2024-01-15T09:33:38;11.40;;;4.10;;
79365;SDS011;68833;53.160;17.920;2024-01-15T09:36:05;5.80;;;3.00;;
79365;SDS011;68833;53.160;17.920;2024-01-15T09:38:32;5.00;;;2.50;;
79365;SDS011;68833;53.160;17.920;2024-01-15T09:41:03;3.50;;;1.80;;
79365;SDS011;68833;53.160;17.920;2024-01-15T09:43:32;4.70;;;2.90;;
79365;SDS011;68833;53.160;17.920;2024-01-15T09:46:00;4.10;;;2.70;;
79365;SDS011;68833;53.160;17.920;2024-01-15T09:48:28;7.60;;;3.40;;
79365;SDS011;68833;53.160;17.920;2024-01-15T09:50:55;4.70;;;1.90;;
79365;SDS011;68833;53.160;17.920;2024-01-15T09:53:25;3.30;;;2.00;;
79365;SDS011;68833;53.160;17.920;2024-01-15T09:55:52;3.10;;;1.60;;
79365;SDS011;68833;53.160;17.920;2024-01-15T09:58:20;2.20;;;1.30;;
79365;SDS011;68833;53.160;17.920;2024-01-15T10:00:47;5.00;;;2.20;;
79365;SDS011;68833;53.160;17.920;2024-01-15T10:03:17;4.00;;;2.60;;
79365;SDS011;68833;53.160;17.920;2024-01-15T10:05:44;5.70;;;3.20;;
79365;SDS011;68833;53.160;17.920;2024-01-15T10:08:11;4.80;;;2.90;;
79365;SDS011;68833;53.160;17.920;2024-01-15T10:10:40;5.40;;;3.00;;
79365;SDS011;68833;53.160;17.920;2024-01-15T10:13:07;4.60;;;2.40;;
79365;SDS011;68833;53.160;17.920;2024-01-15T10:15:35;3.10;;;1.80;;
79365;SDS011;68833;53.160;17.920;2024-01-15T10:18:05;4.40;;;2.70;;
79365;SDS011;68833;53.160;17.920;2024-01-15T10:20:32;9.10;;;5.00;;
79365;SDS011;68833;53.160;17.920;2024-01-15T10:22:59;7.80;;;3.50;;
79365;SDS011;68833;53.160;17.920;2024-01-15T10:25:27;4.70;;;2.40;;
79365;SDS011;68833;53.160;17.920;2024-01-15T10:28:00;2.90;;;1.90;;
79365;SDS011;68833;53.160;17.920;2024-01-15T10:30:29;2.10;;;1.40;;
79365;SDS011;68833;53.160;17.920;2024-01-15T10:32:57;5.20;;;2.00;;
79365;SDS011;68833;53.160;17.920;2024-01-15T10:35:31;4.00;;;2.00;;
79365;SDS011;68833;53.160;17.920;2024-01-15T10:38:00;4.70;;;2.00;;
79365;SDS011;68833;53.160;17.920;2024-01-15T10:40:28;3.90;;;2.10;;
79365;SDS011;68833;53.160;17.920;2024-01-15T10:42:55;3.10;;;1.30;;
79365;SDS011;68833;53.160;17.920;2024-01-15T10:45:26;3.50;;;1.50;;
79365;SDS011;68833;53.160;17.920;2024-01-15T10:47:53;2.90;;;1.50;;
79365;SDS011;68833;53.160;17.920;2024-01-15T10:50:27;2.40;;;1.50;;
79365;SDS011;68833;53.160;17.920;2024-01-15T10:52:59;2.60;;;1.40;;
79365;SDS011;68833;53.160;17.920;2024-01-15T10:55:26;3.70;;;1.50;;
79365;SDS011;68833;53.160;17.920;2024-01-15T10:57:54;2.70;;;1.30;;
79365;SDS011;68833;53.160;17.920;2024-01-15T11:04:14;6.20;;;2.40;;
79365;SDS011;68833;53.160;17.920;2024-01-15T11:06:44;4.00;;;2.90;;
79365;SDS011;68833;53.160;17.920;2024-01-15T11:09:13;5.90;;;2.20;;
79365;SDS011;68833;53.160;17.920;2024-01-15T11:11:44;2.30;;;1.20;;
79365;SDS011;68833;53.160;17.920;2024-01-15T11:17:03;3.50;;;1.70;;
79365;SDS011;68833;53.160;17.920;2024-01-15T11:25:03;2.90;;;2.20;;
79365;SDS011;68833;53.160;17.920;2024-01-15T11:27:44;3.40;;;2.10;;
79365;SDS011;68833;53.160;17.920;2024-01-15T11:30:19;6.50;;;3.90;;
79365;SDS011;68833;53.160;17.920;2024-01-15T11:32:51;6.30;;;4.00;;
79365;SDS011;68833;53.160;17.920;2024-01-15T11:35:18;9.70;;;4.80;;
79365;SDS011;68833;53.160;17.920;2024-01-15T11:40:22;8.70;;;4.80;;
79365;SDS011;68833;53.160;17.920;2024-01-15T11:43:04;4.50;;;2.70;;
79365;SDS011;68833;53.160;17.920;2024-01-15T11:45:33;5.30;;;2.40;;
79365;SDS011;68833;53.160;17.920;2024-01-15T11:48:13;2.40;;;1.60;;
79365;SDS011;68833;53.160;17.920;2024-01-15T11:50:48;5.80;;;2.30;;
79365;SDS011;68833;53.160;17.920;2024-01-15T11:53:17;7.60;;;2.90;;
79365;SDS011;68833;53.160;17.920;2024-01-15T11:56:09;4.60;;;2.10;;
79365;SDS011;68833;53.160;17.920;2024-01-15T11:58:41;4.40;;;2.20;;
79365;SDS011;68833;53.160;17.920;2024-01-15T12:01:10;2.70;;;1.40;;
79365;SDS011;68833;53.160;17.920;2024-01-15T12:03:37;5.40;;;1.80;;
79365;SDS011;68833;53.160;17.920;2024-01-15T12:06:08;6.10;;;2.20;;
79365;SDS011;68833;53.160;17.920;2024-01-15T12:08:36;3.40;;;1.80;;
79365;SDS011;68833;53.160;17.920;2024-01-15T12:11:06;3.80;;;2.20;;
79365;SDS011;68833;53.160;17.920;2024-01-15T12:13:42;2.60;;;1.70;;
79365;SDS011;68833;53.160;17.920;2024-01-15T12:16:10;2.40;;;1.50;;
79365;SDS011;68833;53.160;17.920;2024-01-15T12:18:37;3.80;;;2.00;;
79365;SDS011;68833;53.160;17.920;2024-01-15T12:21:09;4.50;;;1.70;;
79365;SDS011;68833;53.160;17.920;2024-01-15T12:23:39;5.40;;;2.40;;
79365;SDS011;68833;53.160;17.920;2024-01-15T12:26:09;5.40;;;3.10;;
79365;SDS011;68833;53.160;17.920;2024-01-15T12:28:37;5.60;;;3.50;;
79365;SDS011;68833;53.160;17.920;2024-01-15T12:31:06;5.00;;;2.80;;
79365;SDS011;68833;53.160;17.920;2024-01-15T12:33:34;4.60;;;3.20;;
79365;SDS011;68833;53.160;17.920;2024-01-15T12:36:01;3.60;;;2.00;;
79365;SDS011;68833;53.160;17.920;2024-01-15T12:38:28;1.80;;;1.40;;
79365;SDS011;68833;53.160;17.920;2024-01-15T12:40:55;2.30;;;1.40;;
79365;SDS011;68833;53.160;17.920;2024-01-15T12:43:22;4.60;;;1.70;;
79365;SDS011;68833;53.160;17.920;2024-01-15T12:45:52;3.70;;;2.20;;
79365;SDS011;68833;53.160;17.920;2024-01-15T12:48:19;3.00;;;1.70;;
79365;SDS011;68833;53.160;17.920;2024-01-15T12:50:48;3.00;;;1.60;;
79365;SDS011;68833;53.160;17.920;2024-01-15T12:53:22;3.50;;;2.00;;
79365;SDS011;68833;53.160;17.920;2024-01-15T12:55:49;2.30;;;0.80;;
79365;SDS011;68833;53.160;17.920;2024-01-15T12:58:19;4.30;;;1.10;;
79365;SDS011;68833;53.160;17.920;2024-01-15T13:00:46;2.70;;;1.40;;
79365;SDS011;68833;53.160;17.920;2024-01-15T13:03:13;1.90;;;1.40;;
79365;SDS011;68833;53.160;17.920;2024-01-15T13:05:41;4.20;;;2.20;;
79365;SDS011;68833;53.160;17.920;2024-01-15T13:08:08;9.70;;;4.40;;
79365;SDS011;68833;53.160;17.920;2024-01-15T13:10:35;2.30;;;1.90;;
79365;SDS011;68833;53.160;17.920;2024-01-15T13:13:02;3.10;;;1.50;;
79365;SDS011;68833;53.160;17.920;2024-01-15T13:15:30;5.30;;;1.50;;
79365;SDS011;68833;53.160;17.920;2024-01-15T13:17:58;1.90;;;1.20;;
79365;SDS011;68833;53.160;17.920;2024-01-15T13:20:28;4.00;;;1.40;;
79365;SDS011;68833;53.160;17.920;2024-01-15T13:22:55;1.80;;;1.20;;
79365;SDS011;68833;53.160;17.920;2024-01-15T13:25:33;3.90;;;1.50;;
79365;SDS011;68833;53.160;17.920;2024-01-15T13:28:02;4.20;;;2.20;;
79365;SDS011;68833;53.160;17.920;2024-01-15T13:30:31;3.60;;;1.40;;
79365;SDS011;68833;53.160;17.920;2024-01-15T13:32:59;2.90;;;1.20;;
79365;SDS011;68833;53.160;17.920;2024-01-15T13:35:32;2.00;;;1.20;;
79365;SDS011;68833;53.160;17.920;2024-01-15T13:37:59;3.00;;;1.30;;
79365;SDS011;68833;53.160;17.920;2024-01-15T13:40:29;4.30;;;1.70;;
79365;SDS011;68833;53.160;17.920;2024-01-15T13:42:56;5.20;;;2.20;;
79365;SDS011;68833;53.160;17.920;2024-01-15T13:45:24;3.90;;;1.50;;
79365;SDS011;68833;53.160;17.920;2024-01-15T13:47:51;3.90;;;1.90;;
79365;SDS011;68833;53.160;17.920;2024-01-15T13:50:18;1.70;;;0.90;;
79365;SDS011;68833;53.160;17.920;2024-01-15T13:52:48;3.00;;;1.80;;
79365;SDS011;68833;53.160;17.920;2024-01-15T13:55:19;1.80;;;1.30;;
79365;SDS011;68833;53.160;17.920;2024-01-15T13:57:46;2.20;;;1.20;;
79365;SDS011;68833;53.160;17.920;2024-01-15T14:00:14;3.80;;;1.80;;
79365;SDS011;68833;53.160;17.920;2024-01-15T14:02:49;3.60;;;1.80;;
79365;SDS011;68833;53.160;17.920;2024-01-15T14:05:17;2.70;;;1.50;;
79365;SDS011;68833;53.160;17.920;2024-01-15T14:07:57;3.90;;;1.30;;
79365;SDS011;68833;53.160;17.920;2024-01-15T14:10:28;3.00;;;1.40;;
79365;SDS011;68833;53.160;17.920;2024-01-15T14:13:00;2.80;;;1.60;;
79365;SDS011;68833;53.160;17.920;2024-01-15T14:15:28;1.80;;;1.00;;
79365;SDS011;68833;53.160;17.920;2024-01-15T14:17:55;2.60;;;1.60;;
79365;SDS011;68833;53.160;17.920;2024-01-15T14:20:29;2.70;;;1.40;;
79365;SDS011;68833;53.160;17.920;2024-01-15T14:22:57;3.90;;;1.50;;
79365;SDS011;68833;53.160;17.920;2024-01-15T14:25:24;1.90;;;1.30;;
79365;SDS011;68833;53.160;17.920;2024-01-15T14:27:51;2.10;;;1.10;;
79365;SDS011;68833;53.160;17.920;2024-01-15T14:30:21;2.00;;;1.20;;
79365;SDS011;68833;53.160;17.920;2024-01-15T14:32:51;2.20;;;1.30;;
79365;SDS011;68833;53.160;17.920;2024-01-15T14:35:18;3.20;;;1.60;;
79365;SDS011;68833;53.160;17.920;2024-01-15T14:37:46;3.50;;;1.70;;
79365;SDS011;68833;53.160;17.920;2024-01-15T14:40:15;10.70;;;5.60;;
79365;SDS011;68833;53.160;17.920;2024-01-15T14:42:42;11.00;;;6.50;;
79365;SDS011;68833;53.160;17.920;2024-01-15T14:45:11;3.40;;;2.60;;
79365;SDS011;68833;53.160;17.920;2024-01-15T14:47:38;3.40;;;1.50;;
79365;SDS011;68833;53.160;17.920;2024-01-15T14:50:10;1.90;;;1.30;;
79365;SDS011;68833;53.160;17.920;2024-01-15T14:52:37;5.30;;;1.90;;
79365;SDS011;68833;53.160;17.920;2024-01-15T14:55:04;5.30;;;2.00;;
79365;SDS011;68833;53.160;17.920;2024-01-15T14:57:31;4.30;;;1.80;;
79365;SDS011;68833;53.160;17.920;2024-01-15T15:00:05;3.80;;;1.80;;
79365;SDS011;68833;53.160;17.920;2024-01-15T15:02:39;1.80;;;1.20;;
79365;SDS011;68833;53.160;17.920;2024-01-15T15:05:06;2.60;;;1.50;;
79365;SDS011;68833;53.160;17.920;2024-01-15T15:07:33;4.20;;;1.50;;
79365;SDS011;68833;53.160;17.920;2024-01-15T15:10:02;4.20;;;1.90;;
79365;SDS011;68833;53.160;17.920;2024-01-15T15:12:31;5.90;;;2.40;;